Time;durP1;ratioP1;P1;durP2;ratioP2;P2;SDS_P1;SDS_P2;PMS_P1;PMS_P2;Temp;Humidity;BMP_temperature;BMP_pressure;BME280_temperature;BME280_humidity;BME280_pressure;Samples;Min_cycle;Max_cycle;Signal;HPM_P1;HPM_P2
2022/12/03 00:00:35;;;;;;;15.35;7.57;;;6.10;99.90;;;;;;4968285;28;20098;-60
2022/12/03 00:03:02;;;;;;;17.23;7.88;;;6.10;99.90;;;;;;4967823;28;20079;-61
2022/12/03 00:05:29;;;;;;;16.67;7.97;;;6.10;99.90;;;;;;4968101;28;20050;-61
2022/12/03 00:07:56;;;;;;;15.63;8.60;;;6.20;99.90;;;;;;4967701;28;20042;-61
2022/12/03 00:10:23;;;;;;;18.90;8.18;;;6.10;99.90;;;;;;4967672;28;20081;-63
2022/12/03 00:12:50;;;;;;;18.90;7.68;;;6.20;99.90;;;;;;4967769;28;20051;-60
2022/12/03 00:15:16;;;;;;;12.95;7.00;;;6.10;99.90;;;;;;4967560;28;20086;-61
2022/12/03 00:17:43;;;;;;;14.23;7.72;;;6.10;99.90;;;;;;4966370;28;20129;-61
2022/12/03 00:20:16;;;;;;;15.95;7.40;;;6.20;99.90;;;;;;4957137;28;20074;-60
2022/12/03 00:22:42;;;;;;;13.25;7.10;;;6.10;99.90;;;;;;4951234;28;20422;-60
2022/12/03 00:25:09;;;;;;;17.25;7.45;;;6.20;99.90;;;;;;4967458;28;20070;-62
2022/12/03 00:27:36;;;;;;;12.70;6.78;;;6.10;99.90;;;;;;4967697;28;20074;-60
2022/12/03 00:30:03;;;;;;;16.52;6.78;;;6.20;99.90;;;;;;4965565;28;20063;-60
2022/12/03 00:32:30;;;;;;;17.92;7.50;;;6.10;99.90;;;;;;4964973;28;20047;-60
2022/12/03 00:34:57;;;;;;;14.25;7.47;;;6.10;99.90;;;;;;4966098;28;20070;-61
2022/12/03 00:37:24;;;;;;;14.32;7.60;;;6.20;99.90;;;;;;4958675;28;20058;-61
2022/12/03 00:39:50;;;;;;;14.00;7.32;;;6.20;99.90;;;;;;4963284;28;20387;-60
2022/12/03 00:42:17;;;;;;;12.95;6.20;;;6.20;99.90;;;;;;4961214;28;20043;-61
2022/12/03 00:44:44;;;;;;;10.98;5.93;;;6.20;99.90;;;;;;4962369;28;20138;-61
2022/12/03 00:47:11;;;;;;;14.85;6.32;;;6.10;99.90;;;;;;4961094;28;20051;-61
2022/12/03 00:49:38;;;;;;;15.32;7.38;;;6.20;99.90;;;;;;4962443;28;20109;-61
2022/12/03 00:52:05;;;;;;;14.65;6.72;;;6.20;99.90;;;;;;4961393;28;20074;-61
2022/12/03 00:54:32;;;;;;;14.05;5.95;;;6.30;99.90;;;;;;4968929;28;20139;-61
2022/12/03 00:56:58;;;;;;;17.92;7.63;;;6.20;99.90;;;;;;4969489;28;20229;-61
2022/12/03 00:59:25;;;;;;;13.82;7.00;;;6.20;99.90;;;;;;4968777;28;20050;-59
2022/12/03 01:01:52;;;;;;;10.60;6.07;;;6.10;99.90;;;;;;4969034;28;20078;-58
2022/12/03 01:04:19;;;;;;;20.27;7.57;;;6.10;99.90;;;;;;4968771;28;20141;-61
2022/12/03 01:06:46;;;;;;;15.13;6.75;;;6.10;99.90;;;;;;4967626;28;20053;-59
2022/12/03 01:09:12;;;;;;;14.45;7.80;;;6.20;99.90;;;;;;4967232;28;20121;-61
2022/12/03 01:11:40;;;;;;;14.80;7.43;;;6.10;99.90;;;;;;4967934;28;20101;-61
2022/12/03 01:14:11;;;;;;;14.32;7.72;;;6.10;99.90;;;;;;4967238;28;20081;-61
2022/12/03 01:16:38;;;;;;;16.40;7.63;;;6.10;99.90;;;;;;4964222;28;20046;-61
2022/12/03 01:19:05;;;;;;;18.17;7.93;;;6.10;99.90;;;;;;4967390;28;20133;-61
2022/12/03 01:21:32;;;;;;;16.17;8.23;;;6.10;99.90;;;;;;4967234;28;20137;-60
2022/12/03 01:23:59;;;;;;;20.63;8.13;;;6.10;99.90;;;;;;4968868;28;20089;-60
2022/12/03 01:26:25;;;;;;;18.83;7.50;;;6.10;99.90;;;;;;4968339;28;20138;-61
2022/12/03 01:28:52;;;;;;;22.52;8.73;;;6.10;99.90;;;;;;4968801;28;20597;-62
2022/12/03 01:34:05;;;;;;;21.77;8.90;;;6.20;99.90;;;;;;4968205;28;20051;-60
2022/12/03 01:36:33;;;;;;;18.77;8.82;;;6.10;99.90;;;;;;4967742;28;20082;-59
2022/12/03 01:39:00;;;;;;;22.63;8.52;;;6.00;99.90;;;;;;4968449;28;20145;-59
2022/12/03 01:41:27;;;;;;;18.75;8.60;;;6.00;99.90;;;;;;4967919;28;20141;-59
2022/12/03 01:43:54;;;;;;;19.10;8.85;;;6.00;99.90;;;;;;4968659;28;20141;-60
2022/12/03 01:46:26;;;;;;;23.05;9.02;;;6.00;99.90;;;;;;4967690;28;20142;-60
2022/12/03 01:48:53;;;;;;;17.10;9.95;;;6.00;99.90;;;;;;4967038;28;20138;-59
2022/12/03 01:51:20;;;;;;;20.17;9.95;;;5.90;99.90;;;;;;4966590;28;20589;-59
2022/12/03 01:53:46;;;;;;;18.15;9.40;;;5.90;99.90;;;;;;4968110;28;20142;-61
2022/12/03 01:56:16;;;;;;;18.45;9.68;;;5.90;99.90;;;;;;4967835;28;20411;-60
2022/12/03 01:58:43;;;;;;;21.58;9.43;;;5.90;99.90;;;;;;4966159;28;20112;-59
2022/12/03 02:01:13;;;;;;;20.10;10.07;;;5.90;99.90;;;;;;4965664;28;20574;-60
2022/12/03 02:03:40;;;;;;;16.52;8.85;;;5.90;99.90;;;;;;4967494;28;20055;-60
2022/12/03 02:06:15;;;;;;;18.58;10.13;;;5.90;99.90;;;;;;4967196;28;20050;-60
2022/12/03 02:08:42;;;;;;;18.13;9.80;;;5.80;99.90;;;;;;4967479;28;20182;-61
2022/12/03 02:11:24;;;;;;;15.98;7.78;;;5.90;99.90;;;;;;4967566;28;20050;-60
2022/12/03 02:13:52;;;;;;;18.67;10.50;;;5.90;99.90;;;;;;4945795;28;20074;-60
2022/12/03 02:16:19;;;;;;;15.77;9.93;;;5.90;99.90;;;;;;4967505;28;20161;-62
2022/12/03 02:18:45;;;;;;;25.75;9.90;;;6.00;99.90;;;;;;4966903;28;20039;-60
2022/12/03 02:21:23;;;;;;;17.23;8.60;;;5.90;99.90;;;;;;4967795;28;20142;-60
2022/12/03 02:23:57;;;;;;;19.52;9.73;;;5.90;99.90;;;;;;4966967;28;20046;-62
2022/12/03 02:26:24;;;;;;;22.23;9.25;;;5.90;99.90;;;;;;4965707;28;20047;-59
2022/12/03 02:28:51;;;;;;;18.87;9.30;;;5.90;99.90;;;;;;4622653;28;10000538;-60
2022/12/03 02:31:18;;;;;;;17.40;9.48;;;5.90;99.90;;;;;;4966498;28;20477;-60
2022/12/03 02:33:45;;;;;;;17.25;9.30;;;5.90;99.90;;;;;;4967893;28;20093;-60
2022/12/03 02:36:11;;;;;;;20.98;10.70;;;5.90;99.90;;;;;;4966731;28;20057;-60
2022/12/03 02:38:38;;;;;;;20.55;8.68;;;5.90;99.90;;;;;;4967511;28;20498;-60
2022/12/03 02:41:07;;;;;;;19.30;9.43;;;5.90;99.90;;;;;;4966396;28;20134;-61
2022/12/03 02:43:34;;;;;;;22.60;10.30;;;5.90;99.90;;;;;;4966499;28;20050;-60
2022/12/03 02:46:01;;;;;;;17.17;9.65;;;5.80;99.90;;;;;;4980431;28;20086;-61
2022/12/03 02:48:30;;;;;;;30.42;13.80;;;5.90;99.90;;;;;;4967146;28;20499;-60
2022/12/03 02:50:59;;;;;;;23.27;10.18;;;5.90;99.90;;;;;;4967802;28;20078;-60
2022/12/03 02:53:27;;;;;;;14.80;7.85;;;5.90;99.90;;;;;;4969652;28;20149;-60
2022/12/03 02:55:56;;;;;;;20.92;9.82;;;5.90;99.90;;;;;;4953937;28;20138;-60
2022/12/03 02:58:23;;;;;;;18.85;8.27;;;5.90;99.90;;;;;;4970083;28;20081;-60
2022/12/03 03:00:50;;;;;;;19.77;10.35;;;5.90;99.90;;;;;;4970215;28;20521;-60
2022/12/03 03:03:17;;;;;;;19.45;7.88;;;5.90;99.90;;;;;;4954323;28;20043;-61
2022/12/03 03:05:44;;;;;;;18.88;8.40;;;5.90;99.90;;;;;;4971393;28;20080;-60
2022/12/03 03:08:11;;;;;;;15.30;8.55;;;5.90;99.90;;;;;;4970475;28;20039;-60
2022/12/03 03:10:38;;;;;;;25.33;8.23;;;5.90;99.90;;;;;;4970111;28;20062;-60
2022/12/03 03:13:10;;;;;;;18.52;7.35;;;5.90;99.90;;;;;;4970321;28;20054;-60
2022/12/03 03:15:37;;;;;;;17.33;8.27;;;5.90;99.90;;;;;;4966386;28;20054;-60
2022/12/03 03:18:05;;;;;;;18.13;7.28;;;5.90;99.90;;;;;;4953306;28;20043;-60
2022/12/03 03:20:31;;;;;;;12.77;6.75;;;5.90;99.90;;;;;;4952753;28;20080;-60
2022/12/03 03:23:10;;;;;;;13.77;6.70;;;5.90;99.90;;;;;;4971344;28;20070;-60
2022/12/03 03:25:38;;;;;;;16.90;6.63;;;5.90;99.90;;;;;;4970592;28;20144;-60
2022/12/03 03:28:05;;;;;;;18.17;6.88;;;5.90;99.90;;;;;;4969074;28;20086;-60
2022/12/03 03:30:32;;;;;;;16.90;6.35;;;5.90;99.90;;;;;;4969912;28;20138;-60
2022/12/03 03:32:58;;;;;;;18.85;7.90;;;6.00;99.90;;;;;;4969729;28;20149;-61
2022/12/03 03:35:25;;;;;;;23.70;7.40;;;6.00;99.90;;;;;;4969663;28;20138;-61
2022/12/03 03:37:52;;;;;;;13.70;6.20;;;5.90;99.90;;;;;;4970452;28;20552;-61
2022/12/03 03:40:22;;;;;;;14.75;6.88;;;5.90;99.90;;;;;;4969111;28;20050;-61
2022/12/03 03:42:48;;;;;;;16.75;7.88;;;5.90;99.90;;;;;;4970595;28;20062;-60
2022/12/03 03:45:15;;;;;;;15.85;6.05;;;5.90;99.90;;;;;;4969073;28;20561;-60
2022/12/03 03:47:42;;;;;;;15.32;6.18;;;5.90;99.90;;;;;;4969658;28;20129;-60
2022/12/03 03:50:09;;;;;;;13.65;5.80;;;5.90;99.90;;;;;;4968777;28;20229;-60
2022/12/03 03:52:36;;;;;;;14.30;6.40;;;5.90;99.90;;;;;;4953330;28;20132;-59
2022/12/03 03:55:03;;;;;;;16.35;6.72;;;5.90;99.90;;;;;;4952993;28;20067;-60
2022/12/03 03:57:30;;;;;;;19.58;6.85;;;5.90;99.90;;;;;;4953182;28;20051;-60
2022/12/03 03:59:58;;;;;;;15.02;5.68;;;5.90;99.90;;;;;;4984457;28;20162;-60
2022/12/03 04:02:25;;;;;;;18.15;7.03;;;5.90;99.90;;;;;;4966111;28;20118;-61
2022/12/03 04:04:52;;;;;;;17.95;6.57;;;5.90;99.90;;;;;;4967682;28;20078;-60
2022/12/03 04:07:19;;;;;;;15.43;7.43;;;5.90;99.90;;;;;;4968609;28;20078;-60
2022/12/03 04:09:46;;;;;;;12.70;6.30;;;5.90;99.90;;;;;;4970053;28;20047;-61
2022/12/03 04:14:58;;;;;;;21.10;8.57;;;5.90;99.90;;;;;;4969987;28;20054;-61
2022/12/03 04:17:25;;;;;;;15.65;6.80;;;5.90;99.90;;;;;;4969251;28;20047;-61
2022/12/03 04:19:51;;;;;;;28.55;8.00;;;5.80;99.90;;;;;;4970206;28;20055;-63
2022/12/03 04:30:35;;;;;;;17.85;7.07;;;5.90;99.90;;;;;;4969618;28;20134;-60
2022/12/03 04:35:47;;;;;;;20.10;7.78;;;5.80;99.90;;;;;;4968730;28;20090;-60
2022/12/03 04:38:14;;;;;;;16.25;8.27;;;5.80;99.90;;;;;;4969360;28;20081;-60
2022/12/03 04:40:59;;;;;;;15.15;6.90;;;5.90;99.90;;;;;;4970000;28;20070;-60
2022/12/03 04:43:27;;;;;;;16.65;8.82;;;5.90;99.90;;;;;;4969432;28;20058;-59
2022/12/03 04:45:54;;;;;;;16.50;7.03;;;5.80;99.90;;;;;;4969593;28;20051;-60
2022/12/03 04:48:20;;;;;;;15.90;7.85;;;5.80;99.90;;;;;;4969224;28;20047;-59
2022/12/03 04:50:47;;;;;;;21.67;9.88;;;5.80;99.90;;;;;;4984673;28;20141;-60
2022/12/03 04:53:14;;;;;;;20.55;9.68;;;5.80;99.90;;;;;;4969029;28;20074;-61
2022/12/03 04:55:41;;;;;;;18.55;9.68;;;5.80;99.90;;;;;;4969635;28;20074;-60
2022/12/03 04:58:08;;;;;;;22.40;10.00;;;5.90;99.90;;;;;;4983730;28;20051;-60
2022/12/03 05:00:34;;;;;;;21.17;9.63;;;5.80;99.90;;;;;;4968542;28;20074;-60
2022/12/03 05:03:01;;;;;;;17.25;8.50;;;5.80;99.90;;;;;;4968284;28;20042;-60
2022/12/03 05:05:28;;;;;;;23.20;10.90;;;5.70;99.90;;;;;;4968682;28;20165;-60
2022/12/03 05:07:55;;;;;;;25.58;11.82;;;5.70;99.90;;;;;;4968870;28;20078;-60
2022/12/03 05:10:22;;;;;;;24.42;9.68;;;5.70;99.90;;;;;;4968753;28;20517;-60
2022/12/03 05:12:48;;;;;;;25.20;11.57;;;5.70;99.90;;;;;;4968452;28;20138;-59
2022/12/03 05:15:15;;;;;;;25.98;12.23;;;5.70;99.90;;;;;;4968349;28;20053;-60
2022/12/03 05:17:42;;;;;;;26.35;12.32;;;5.70;99.90;;;;;;4968090;28;20391;-60
2022/12/03 05:22:54;;;;;;;22.42;11.00;;;5.70;99.90;;;;;;4968389;28;20078;-60
2022/12/03 05:25:21;;;;;;;28.08;12.70;;;5.70;99.90;;;;;;4973089;28;20831;-60
2022/12/03 05:27:48;;;;;;;30.10;12.02;;;5.70;99.90;;;;;;4968452;28;20153;-60
2022/12/03 05:30:15;;;;;;;25.08;12.25;;;5.70;99.90;;;;;;4968176;28;20085;-60
2022/12/03 05:32:41;;;;;;;30.08;11.52;;;5.70;99.90;;;;;;4967949;28;20522;-61
2022/12/03 05:35:09;;;;;;;31.40;12.73;;;5.70;99.90;;;;;;4967790;28;20049;-59
2022/12/03 05:37:36;;;;;;;35.30;12.63;;;5.70;99.90;;;;;;4968381;28;20145;-59
2022/12/03 05:40:03;;;;;;;26.73;11.68;;;5.70;99.90;;;;;;4967919;28;20090;-59
2022/12/03 05:45:15;;;;;;;23.75;11.30;;;5.60;99.90;;;;;;4967679;28;20047;-60
2022/12/03 05:47:42;;;;;;;27.45;11.50;;;5.60;99.90;;;;;;4968041;28;20050;-61
2022/12/03 05:50:08;;;;;;;24.98;11.20;;;5.60;99.90;;;;;;4967613;28;20034;-60
2022/12/03 05:52:35;;;;;;;28.20;10.70;;;5.60;99.90;;;;;;4968011;28;20154;-59
2022/12/03 05:55:02;;;;;;;19.98;10.32;;;5.60;99.90;;;;;;4982323;28;20142;-59
2022/12/03 05:57:32;;;;;;;26.23;11.13;;;5.60;99.90;;;;;;4967729;28;20145;-59
2022/12/03 05:59:59;;;;;;;20.00;10.63;;;5.60;99.90;;;;;;4967596;28;20070;-60
2022/12/03 06:02:25;;;;;;;24.10;11.38;;;5.60;99.90;;;;;;4967600;28;20101;-60
2022/12/03 06:04:52;;;;;;;23.95;9.45;;;5.60;99.90;;;;;;4967508;28;20100;-61
2022/12/03 06:07:19;;;;;;;23.00;10.40;;;5.70;99.90;;;;;;4967623;28;20141;-61
2022/12/03 06:09:46;;;;;;;19.15;8.88;;;5.70;99.90;;;;;;4967894;28;20137;-59
2022/12/03 06:12:13;;;;;;;24.38;9.95;;;5.70;99.90;;;;;;4968058;28;20139;-58
2022/12/03 06:14:40;;;;;;;19.73;9.32;;;5.70;99.90;;;;;;4967616;28;20133;-59
2022/12/03 06:17:07;;;;;;;26.13;12.10;;;5.70;99.90;;;;;;4982389;28;20058;-60
2022/12/03 06:19:33;;;;;;;21.63;9.57;;;5.70;99.90;;;;;;4967530;28;20046;-60
2022/12/03 06:22:00;;;;;;;21.52;8.88;;;5.70;99.90;;;;;;4967763;28;20050;-60
2022/12/03 06:24:27;;;;;;;19.30;9.82;;;5.70;99.90;;;;;;4967326;28;20086;-61
2022/12/03 06:26:54;;;;;;;18.13;8.68;;;5.80;99.90;;;;;;4967528;28;20046;-59
2022/12/03 06:29:20;;;;;;;19.08;9.05;;;5.80;99.90;;;;;;4967778;28;20149;-59
2022/12/03 06:31:47;;;;;;;23.83;9.07;;;5.80;99.90;;;;;;4971237;28;20046;-61
2022/12/03 06:34:14;;;;;;;24.52;8.05;;;5.80;99.90;;;;;;4971215;28;20125;-60
2022/12/03 06:36:41;;;;;;;33.97;10.32;;;5.80;99.90;;;;;;4971184;28;20077;-61
2022/12/03 06:39:07;;;;;;;16.58;7.75;;;5.80;99.90;;;;;;4971334;28;20133;-59
2022/12/03 06:41:34;;;;;;;18.83;8.90;;;5.80;99.90;;;;;;4971299;28;20051;-60
2022/12/03 06:44:01;;;;;;;18.35;7.63;;;5.80;99.90;;;;;;4971613;28;20059;-60
2022/12/03 06:46:28;;;;;;;17.27;7.72;;;5.80;99.90;;;;;;4971003;28;20050;-59
2022/12/03 06:48:54;;;;;;;17.23;7.55;;;5.80;99.90;;;;;;4971261;28;20055;-59
2022/12/03 06:51:21;;;;;;;16.48;8.55;;;5.80;99.90;;;;;;4970845;28;20660;-60
2022/12/03 06:53:48;;;;;;;17.90;8.75;;;5.70;99.90;;;;;;4970991;28;20057;-59
2022/12/03 06:56:15;;;;;;;18.60;7.78;;;5.90;99.90;;;;;;4970517;28;20082;-59
2022/12/03 06:58:47;;;;;;;15.50;8.18;;;5.90;99.90;;;;;;4971069;28;20054;-60
2022/12/03 07:01:14;;;;;;;18.38;8.60;;;5.90;99.90;;;;;;4970577;28;20395;-61
2022/12/03 07:03:41;;;;;;;20.98;8.25;;;5.90;99.90;;;;;;4970919;28;20050;-60
2022/12/03 07:06:07;;;;;;;15.88;7.65;;;5.90;99.90;;;;;;4970484;28;20055;-60
2022/12/03 07:08:34;;;;;;;20.73;9.13;;;5.90;99.90;;;;;;4970484;28;20055;-60
2022/12/03 07:11:01;;;;;;;16.15;7.80;;;5.90;99.90;;;;;;4970490;28;20097;-62
2022/12/03 07:13:31;;;;;;;25.20;8.73;;;5.90;99.90;;;;;;4970217;28;20047;-62
2022/12/03 07:16:02;;;;;;;16.13;7.60;;;5.90;99.90;;;;;;4970652;28;20047;-63
2022/12/03 07:18:39;;;;;;;21.08;9.07;;;5.90;99.90;;;;;;4968202;28;20300;-62
2022/12/03 07:21:06;;;;;;;15.77;6.80;;;5.90;99.90;;;;;;4969244;28;20078;-62
2022/12/03 07:23:40;;;;;;;15.70;6.95;;;5.90;99.90;;;;;;4968273;28;20055;-62
2022/12/03 07:26:07;;;;;;;19.02;8.00;;;5.90;99.90;;;;;;4970325;28;20133;-60
2022/12/03 07:28:33;;;;;;;18.75;8.18;;;5.90;99.90;;;;;;4969077;28;20142;-60
2022/12/03 07:31:00;;;;;;;12.48;6.18;;;5.90;99.90;;;;;;4970439;28;20082;-59
2022/12/03 07:33:27;;;;;;;16.10;7.25;;;5.90;99.90;;;;;;4984832;28;20065;-60
2022/12/03 07:35:54;;;;;;;17.63;7.90;;;6.00;99.90;;;;;;4626236;28;10000369;-60
2022/12/03 07:38:20;;;;;;;20.70;8.02;;;5.90;99.90;;;;;;4967970;28;20312;-60
2022/12/03 07:40:47;;;;;;;16.50;7.25;;;6.00;99.90;;;;;;4981881;28;20078;-60
2022/12/03 07:43:14;;;;;;;20.00;6.45;;;5.90;99.90;;;;;;4967352;28;20213;-60
2022/12/03 07:45:41;;;;;;;17.77;6.80;;;5.90;99.90;;;;;;4967328;28;20419;-60
2022/12/03 07:48:07;;;;;;;11.88;5.57;;;6.00;99.90;;;;;;4967232;28;20050;-61
2022/12/03 07:50:34;;;;;;;15.20;6.47;;;6.00;99.90;;;;;;4967580;28;20502;-60
2022/12/03 07:53:04;;;;;;;17.77;6.15;;;6.00;99.90;;;;;;4967271;28;20449;-60
2022/12/03 07:55:31;;;;;;;15.07;6.72;;;5.90;99.90;;;;;;4967589;28;20083;-60
2022/12/03 07:57:57;;;;;;;17.70;6.53;;;5.90;99.90;;;;;;4967147;28;20050;-60
2022/12/03 08:00:24;;;;;;;14.00;6.32;;;5.90;99.90;;;;;;4967289;28;20057;-60
2022/12/03 08:02:51;;;;;;;21.85;5.95;;;5.90;99.90;;;;;;4967147;28;20078;-61
2022/12/03 08:05:18;;;;;;;13.52;5.85;;;6.00;99.90;;;;;;4963391;28;20098;-61
2022/12/03 08:07:44;;;;;;;14.35;6.50;;;5.90;99.90;;;;;;4967627;28;20150;-60
2022/12/03 08:10:11;;;;;;;19.50;6.90;;;5.90;99.90;;;;;;4967622;28;20051;-62
2022/12/03 08:12:44;;;;;;;17.83;5.85;;;5.90;99.90;;;;;;4967502;28;20090;-62
2022/12/03 08:15:13;;;;;;;16.05;5.70;;;5.90;99.90;;;;;;4966745;28;20573;-64
2022/12/03 08:17:41;;;;;;;17.58;6.20;;;5.90;99.90;;;;;;4966247;28;20089;-61
2022/12/03 08:20:19;;;;;;;20.52;6.18;;;6.00;99.90;;;;;;4967070;28;20057;-60
2022/12/03 08:22:47;;;;;;;12.35;5.47;;;5.90;99.90;;;;;;4967213;28;20083;-60
2022/12/03 08:25:22;;;;;;;12.38;5.57;;;5.90;99.90;;;;;;4966624;28;20055;-58
2022/12/03 08:27:59;;;;;;;15.68;6.32;;;6.00;99.90;;;;;;4947634;28;20544;-60
2022/12/03 08:30:26;;;;;;;15.30;6.15;;;6.00;99.90;;;;;;4977381;28;20502;-60
2022/12/03 08:32:52;;;;;;;13.13;4.85;;;6.00;99.90;;;;;;4966660;28;20525;-60
2022/12/03 08:35:22;;;;;;;12.00;6.10;;;6.00;99.90;;;;;;4965117;28;20169;-61
2022/12/03 08:37:54;;;;;;;15.90;5.43;;;6.00;99.90;;;;;;4966613;28;20095;-60
2022/12/03 08:40:23;;;;;;;10.77;6.03;;;6.00;99.90;;;;;;4949702;28;20150;-61
2022/12/03 08:42:50;;;;;;;11.80;5.10;;;5.90;99.90;;;;;;4949933;28;20050;-61
2022/12/03 08:45:29;;;;;;;15.98;5.78;;;5.90;99.90;;;;;;4966765;28;20157;-61
2022/12/03 08:48:00;;;;;;;15.73;5.70;;;5.90;99.90;;;;;;4966992;28;20066;-61
2022/12/03 08:50:27;;;;;;;8.73;5.20;;;5.90;99.90;;;;;;4963311;28;20141;-60
2022/12/03 08:52:58;;;;;;;13.60;5.43;;;6.00;99.90;;;;;;4966232;28;20061;-61
2022/12/03 08:55:33;;;;;;;13.32;5.15;;;6.00;99.90;;;;;;4939114;28;20081;-62
2022/12/03 08:57:59;;;;;;;10.65;5.03;;;6.10;99.90;;;;;;4978189;28;20055;-61
2022/12/03 09:00:26;;;;;;;11.13;5.35;;;6.10;99.90;;;;;;4980959;28;20510;-60
2022/12/03 09:02:54;;;;;;;13.77;5.03;;;6.10;99.90;;;;;;4958320;28;20082;-60
2022/12/03 09:05:22;;;;;;;12.75;5.28;;;6.20;99.90;;;;;;4958212;28;20059;-60
2022/12/03 09:07:49;;;;;;;10.68;5.28;;;6.20;99.90;;;;;;4962773;28;20055;-61
2022/12/03 09:10:16;;;;;;;16.85;5.25;;;6.30;99.90;;;;;;4966289;28;20577;-62
2022/12/03 09:12:43;;;;;;;13.25;4.90;;;6.20;99.90;;;;;;4966562;28;20061;-61
2022/12/03 09:15:10;;;;;;;15.18;5.30;;;6.20;99.90;;;;;;4966311;28;20058;-61
2022/12/03 09:17:37;;;;;;;15.60;6.38;;;6.20;99.90;;;;;;4965532;28;20051;-60
2022/12/03 09:20:05;;;;;;;12.52;5.80;;;6.20;99.90;;;;;;4949738;28;20051;-61
2022/12/03 09:22:34;;;;;;;12.43;5.53;;;6.20;99.90;;;;;;4966359;28;20054;-61
2022/12/03 09:25:01;;;;;;;16.67;4.50;;;6.20;99.90;;;;;;4964471;28;20047;-61
2022/12/03 09:27:28;;;;;;;15.52;4.20;;;6.40;99.90;;;;;;4962890;28;20102;-60
2022/12/03 09:29:54;;;;;;;11.88;5.00;;;6.30;99.90;;;;;;4966621;28;20149;-61
2022/12/03 09:32:21;;;;;;;13.98;5.30;;;6.30;99.90;;;;;;4968158;28;20078;-59
2022/12/03 09:34:48;;;;;;;7.50;5.00;;;6.40;99.90;;;;;;4967545;28;20065;-61
2022/12/03 09:37:15;;;;;;;14.85;4.68;;;6.40;99.90;;;;;;4959745;28;20134;-60
2022/12/03 09:39:44;;;;;;;11.25;4.85;;;6.50;99.90;;;;;;4965090;28;20055;-60
2022/12/03 09:42:11;;;;;;;13.52;4.88;;;6.50;99.90;;;;;;4965908;28;20665;-60
2022/12/03 09:44:38;;;;;;;15.60;6.05;;;6.50;99.90;;;;;;4965920;28;20138;-61
2022/12/03 09:47:05;;;;;;;8.90;4.05;;;6.50;99.90;;;;;;4963428;28;20074;-60
2022/12/03 09:49:32;;;;;;;11.73;5.55;;;6.60;99.90;;;;;;4963502;28;20050;-60
2022/12/03 09:52:00;;;;;;;11.88;4.30;;;6.60;99.90;;;;;;4966482;28;20101;-60
2022/12/03 09:54:27;;;;;;;13.25;4.80;;;6.60;99.90;;;;;;4948981;28;20047;-60
2022/12/03 09:56:55;;;;;;;14.77;4.65;;;6.60;99.90;;;;;;4960381;28;20070;-61
2022/12/03 09:59:25;;;;;;;12.70;5.13;;;6.60;99.90;;;;;;4964938;28;20702;-61
2022/12/03 10:01:54;;;;;;;10.27;4.53;;;6.70;99.90;;;;;;4953402;28;20134;-60
2022/12/03 10:04:21;;;;;;;12.60;4.30;;;6.70;99.90;;;;;;4963691;28;20682;-61
2022/12/03 10:06:48;;;;;;;12.68;5.22;;;6.80;99.90;;;;;;4956378;28;20196;-60
2022/12/03 10:09:21;;;;;;;12.70;5.20;;;6.80;99.90;;;;;;4964993;28;20038;-60
2022/12/03 10:11:48;;;;;;;11.90;4.50;;;6.80;99.90;;;;;;4946270;28;20086;-59
2022/12/03 10:14:15;;;;;;;10.10;4.38;;;6.80;99.90;;;;;;4965292;28;20090;-59
2022/12/03 10:16:42;;;;;;;9.98;4.05;;;6.90;99.90;;;;;;4948916;28;20505;-61
2022/12/03 10:19:15;;;;;;;16.48;4.43;;;6.90;99.90;;;;;;4961963;28;20047;-62
2022/12/03 10:21:41;;;;;;;12.43;4.20;;;7.00;99.90;;;;;;4953486;28;20082;-60
2022/12/03 10:24:17;;;;;;;15.52;4.13;;;7.00;99.90;;;;;;4963394;28;20466;-60
2022/12/03 10:26:45;;;;;;;11.75;4.93;;;7.00;99.90;;;;;;4965699;28;20137;-61
2022/12/03 10:29:23;;;;;;;14.68;4.47;;;7.10;99.90;;;;;;4987151;28;20138;-60
2022/12/03 10:31:59;;;;;;;7.65;4.15;;;7.10;99.90;;;;;;4961006;28;20419;-61
2022/12/03 10:34:29;;;;;;;16.02;5.03;;;7.10;99.90;;;;;;4967310;28;20134;-59
2022/12/03 10:37:14;;;;;;;11.20;4.57;;;7.10;99.90;;;;;;4966096;28;20047;-59
2022/12/03 10:40:07;;;;;;;14.07;4.47;;;7.10;99.90;;;;;;4962183;28;20142;-59
2022/12/03 10:42:36;;;;;;;10.55;4.03;;;7.20;99.90;;;;;;4967337;28;20090;-60
2022/12/03 10:45:12;;;;;;;14.93;4.95;;;7.20;99.90;;;;;;4957448;28;20086;-60
2022/12/03 10:47:42;;;;;;;9.48;4.20;;;7.20;99.90;;;;;;4958769;28;20657;-60
2022/12/03 10:50:17;;;;;;;15.63;5.53;;;7.20;99.90;;;;;;4966050;28;20062;-60
2022/12/03 10:52:45;;;;;;;8.77;3.95;;;7.30;99.90;;;;;;4956798;28;20051;-59
2022/12/03 10:55:12;;;;;;;13.48;4.22;;;7.20;99.90;;;;;;4960602;28;20130;-60
2022/12/03 10:57:39;;;;;;;13.02;4.75;;;7.30;99.90;;;;;;4955915;28;20043;-61
2022/12/03 11:00:17;;;;;;;10.35;4.85;;;7.30;99.90;;;;;;4984725;28;20058;-60
2022/12/03 11:02:45;;;;;;;13.73;4.57;;;7.30;99.90;;;;;;4980340;28;20051;-61
2022/12/03 11:05:22;;;;;;;14.45;4.55;;;7.30;99.90;;;;;;4961157;28;20059;-59
2022/12/03 11:07:48;;;;;;;8.57;3.80;;;7.30;99.90;;;;;;4956162;28;20055;-61
2022/12/03 11:10:16;;;;;;;9.50;5.47;;;7.40;99.90;;;;;;4955716;28;20047;-58
2022/12/03 11:13:22;;;;;;;10.75;3.72;;;7.40;99.90;;;;;;4986018;28;20082;-60
2022/12/03 11:15:49;;;;;;;13.27;3.78;;;7.40;99.90;;;;;;4962969;28;20042;-60
2022/12/03 11:18:35;;;;;;;12.10;5.10;;;7.40;99.90;;;;;;4968564;28;20137;-60
2022/12/03 11:21:04;;;;;;;14.10;3.88;;;7.50;99.90;;;;;;4968609;28;20050;-59
2022/12/03 11:23:46;;;;;;;16.52;6.10;;;7.50;99.90;;;;;;4967419;28;20082;-60
2022/12/03 11:26:16;;;;;;;10.95;3.47;;;7.50;99.90;;;;;;4968628;28;20059;-60
2022/12/03 11:28:45;;;;;;;11.18;3.72;;;7.50;99.90;;;;;;4949776;28;20105;-60
2022/12/03 11:31:45;;;;;;;13.88;5.45;;;7.50;99.90;;;;;;4944768;28;20055;-60
2022/12/03 11:34:21;;;;;;;14.90;4.60;;;7.50;99.90;;;;;;4968341;28;20141;-60
2022/12/03 11:37:09;;;;;;;12.95;3.72;;;7.50;99.90;;;;;;4968454;28;20149;-60
2022/12/03 11:39:49;;;;;;;9.52;3.85;;;7.50;99.90;;;;;;4968520;28;20062;-59
2022/12/03 11:42:25;;;;;;;15.57;4.15;;;7.50;99.90;;;;;;4968135;28;20050;-59
2022/12/03 11:45:04;;;;;;;11.82;5.88;;;7.50;99.90;;;;;;4968190;28;20457;-59
2022/12/03 11:47:42;;;;;;;12.02;4.60;;;7.50;99.90;;;;;;4968231;28;20462;-60
2022/12/03 11:50:31;;;;;;;13.50;4.50;;;7.50;99.90;;;;;;4968389;28;20090;-60
2022/12/03 11:53:15;;;;;;;10.60;5.15;;;7.50;99.90;;;;;;4967123;28;20053;-60
2022/12/03 11:56:10;;;;;;;15.27;5.10;;;7.50;99.90;;;;;;4960056;28;20474;-60
2022/12/03 11:58:37;;;;;;;;;;;7.50;99.90;;;;;;4983090;28;20118;-60
2022/12/03 12:01:05;;;;;;;13.48;4.97;;;7.60;99.90;;;;;;4960384;28;20024;-60
2022/12/03 12:03:34;;;;;;;16.67;5.47;;;7.60;99.90;;;;;;4960037;28;20073;-60
2022/12/03 12:06:05;;;;;;;15.80;4.90;;;7.60;99.90;;;;;;4959125;28;20054;-60
2022/12/03 12:08:33;;;;;;;15.35;5.57;;;7.60;99.90;;;;;;4960829;28;20155;-59
2022/12/03 12:11:01;;;;;;;13.80;5.00;;;7.60;99.90;;;;;;4958370;28;20046;-59
2022/12/03 12:13:30;;;;;;;14.85;5.57;;;7.60;99.90;;;;;;4982840;28;20134;-59
2022/12/03 12:16:01;;;;;;;13.68;4.93;;;7.60;99.90;;;;;;4968029;28;20169;-60
2022/12/03 12:18:50;;;;;;;12.18;4.20;;;7.60;99.90;;;;;;4966477;28;20685;-59
2022/12/03 12:21:40;;;;;;;12.02;4.70;;;7.70;99.90;;;;;;4966976;28;20533;-59
2022/12/03 12:24:29;;;;;;;19.45;6.05;;;7.60;99.90;;;;;;4956958;28;20047;-60
2022/12/03 12:26:57;;;;;;;10.57;4.55;;;7.70;99.90;;;;;;4959913;28;20038;-59
2022/12/03 12:29:24;;;;;;;16.83;5.72;;;7.70;99.90;;;;;;4967065;28;20082;-60
2022/12/03 12:31:56;;;;;;;10.48;5.20;;;7.70;99.90;;;;;;4967910;28;20089;-60
2022/12/03 12:34:24;;;;;;;12.25;5.82;;;7.60;99.90;;;;;;4987534;28;20062;-60
2022/12/03 12:36:51;;;;;;;10.95;5.28;;;7.60;99.90;;;;;;4961376;28;20047;-60
2022/12/03 12:39:18;;;;;;;17.27;5.47;;;7.60;99.90;;;;;;4961864;28;20078;-60
2022/12/03 12:41:47;;;;;;;20.77;6.30;;;7.60;99.90;;;;;;4955129;28;20047;-60
2022/12/03 12:44:14;;;;;;;14.05;5.28;;;7.70;99.90;;;;;;4980578;28;20137;-61
2022/12/03 12:46:41;;;;;;;16.48;5.68;;;7.70;99.90;;;;;;4966945;28;20133;-60
2022/12/03 12:49:14;;;;;;;14.10;6.23;;;7.70;99.90;;;;;;4961629;28;20161;-60
2022/12/03 12:51:44;;;;;;;19.63;6.45;;;7.70;99.90;;;;;;4967129;28;20331;-60
2022/12/03 12:54:13;;;;;;;11.15;5.93;;;7.80;99.90;;;;;;4965522;28;20509;-60
2022/12/03 12:56:41;;;;;;;13.85;5.78;;;7.70;99.90;;;;;;4947973;29;20495;-61
2022/12/03 12:59:10;;;;;;;17.88;7.43;;;7.70;99.90;;;;;;4975586;28;20059;-61
2022/12/03 13:01:37;;;;;;;13.98;6.35;;;7.80;99.90;;;;;;4966940;28;20086;-60
2022/12/03 13:04:15;;;;;;;15.50;7.82;;;7.80;99.90;;;;;;4988411;28;20105;-60
2022/12/03 13:06:42;;;;;;;18.38;8.98;;;7.80;99.90;;;;;;4967077;28;20062;-60
2022/12/03 13:09:16;;;;;;;21.80;10.45;;;7.70;99.90;;;;;;4965861;28;20042;-60
2022/12/03 13:11:44;;;;;;;23.67;9.38;;;7.70;99.90;;;;;;4963884;28;20134;-61
2022/12/03 13:14:22;;;;;;;21.90;9.13;;;7.70;99.90;;;;;;4958572;28;20097;-61
2022/12/03 13:16:50;;;;;;;17.85;8.18;;;7.70;99.90;;;;;;4961266;28;20047;-60